KGVE/GVE METAR and TAF weather

Enter ICAO airport designator
Station Type Date Time Source
KGVE METAR 2022/12/08 12:55 UTC NOAA

KGVE 081255Z AUTO 04003KT 7SM CLR 06/06 A3024 RMK AO1 T00580057


Station Type Date Time Source
KGVE Decoded METAR 2022/12/08 12:55 UTC NOAA

Station name not available
Dec 08, 2022 - 07:55 AM EST / 2022.12.08 1255 UTC
Wind: from the NE (040 degrees) at 3 MPH (3 KT):0
Visibility: 7 mile(s):0
Sky conditions: clear
Temperature: 42.4 F (5.8 C)
Dew Point: 42.3 F (5.7 C)
Relative Humidity: 99%
Pressure (altimeter): 30.24 in. Hg (1024 hPa)
ob: KGVE 081255Z AUTO 04003KT 7SM CLR 06/06 A3024 RMK AO1 T00580057
cycle: 13

Station Type Date Time Source
KGVE TAF UTC NOAA

Error!

Example: see airport list